Terminal Aerodrome Forecast
Issued by NWS

Home | Current Version | Previous Version | Text Only | Print | Product List | Glossary On
Versions: 1 2 3 4 5 6 7 8 9 10 11 12
938
FTUS46 KLOX 240548
TAFLGB
TAF
KLGB 240548Z 2406/2506 VRB03KT P6SM SCT200
     FM240700 15006KT P6SM BKN015
     FM241700 19009KT P6SM SCT020
     FM242300 28010KT P6SM SCT200
     FM250500 VRB03KT P6SM SCT200=

USA.gov is the U.S. government's official web portal to all federal, state and local government web resources and services.